Time;durP1;ratioP1;P1;durP2;ratioP2;P2;SDS_P1;SDS_P2;PMS_P1;PMS_P2;Temp;Humidity;BMP_temperature;BMP_pressure;BME280_temperature;BME280_humidity;BME280_pressure;Samples;Min_cycle;Max_cycle;Signal;HPM_P1;HPM_P2
2022/04/26 03:38:20;;;;;;;9.68;3.60;;;;;;;15.47;100.00;100747.28;4995922;28;20026;-74
2022/04/26 03:41:05;;;;;;;7.30;3.33;;;;;;;15.37;100.00;100760.88;4996593;28;20038;-74
2022/04/26 03:43:51;;;;;;;8.23;3.60;;;;;;;15.57;100.00;100755.72;4995657;28;20117;-76
2022/04/26 03:46:37;;;;;;;8.40;3.58;;;;;;;15.39;100.00;100772.25;4997810;28;20105;-73
2022/04/26 03:49:23;;;;;;;8.63;3.15;;;;;;;15.68;100.00;100761.47;4997469;28;20026;-73
2022/04/26 03:52:09;;;;;;;7.07;3.40;;;;;;;15.58;100.00;100770.63;4995942;28;20416;-75
2022/04/26 03:54:55;;;;;;;9.50;3.33;;;;;;;15.57;100.00;100779.47;4997788;28;20053;-74
2022/04/26 03:57:41;;;;;;;7.05;3.35;;;;;;;15.52;100.00;100771.75;4995618;28;20023;-74
2022/04/26 04:00:27;;;;;;;8.75;3.35;;;;;;;15.24;100.00;100785.94;4995914;28;20089;-74
2022/04/26 04:03:13;;;;;;;7.68;2.90;;;;;;;15.47;100.00;100788.69;4996984;28;20037;-74
2022/04/26 04:05:59;;;;;;;8.27;3.40;;;;;;;15.25;100.00;100787.66;4997152;28;20034;-75
2022/04/26 04:08:44;;;;;;;9.95;3.60;;;;;;;15.11;100.00;100790.78;4995508;28;20110;-73
2022/04/26 04:11:30;;;;;;;8.77;3.90;;;;;;;15.45;100.00;100782.56;4996273;28;20038;-74
2022/04/26 04:14:16;;;;;;;6.43;3.65;;;;;;;15.19;100.00;100787.91;4996763;28;20022;-74
2022/04/26 04:17:02;;;;;;;12.98;3.83;;;;;;;15.35;100.00;100797.03;4996215;28;20065;-74
2022/04/26 04:19:48;;;;;;;8.43;3.67;;;;;;;15.47;100.00;100802.72;4996786;28;20049;-74
2022/04/26 04:22:36;;;;;;;7.38;3.50;;;;;;;15.22;100.00;100801.00;4996878;28;20367;-74
2022/04/26 04:25:22;;;;;;;8.77;3.78;;;;;;;15.72;100.00;100802.69;4996980;28;20022;-74
2022/04/26 04:28:08;;;;;;;7.38;3.50;;;;;;;15.58;100.00;100812.91;4982328;28;20061;-73
2022/04/26 04:30:54;;;;;;;8.85;4.05;;;;;;;15.78;100.00;100798.06;4996980;28;20065;-74
2022/04/26 04:33:39;;;;;;;9.45;3.70;;;;;;;15.74;100.00;100798.22;4996533;28;20128;-75
2022/04/26 04:36:27;;;;;;;10.35;3.72;;;;;;;15.87;100.00;100802.97;4997026;28;20030;-75
2022/04/26 04:39:19;;;;;;;9.68;3.83;;;;;;;15.77;100.00;100803.38;4995180;28;20023;-74
2022/04/26 04:42:04;;;;;;;9.63;3.97;;;;;;;16.06;100.00;100803.13;4995025;28;20022;-75
2022/04/26 04:44:50;;;;;;;8.55;3.30;;;;;;;16.12;100.00;100808.22;4995869;28;20026;-75
2022/04/26 04:47:36;;;;;;;8.77;3.85;;;;;;;16.14;100.00;100817.81;4995919;28;20366;-75
2022/04/26 04:50:22;;;;;;;9.15;3.90;;;;;;;16.23;100.00;100814.78;4996281;28;20030;-74
2022/04/26 04:53:07;;;;;;;11.00;3.47;;;;;;;16.36;100.00;100813.38;4996460;28;20455;-74
2022/04/26 04:55:53;;;;;;;14.10;4.10;;;;;;;15.72;100.00;100815.91;4981651;28;20030;-74
2022/04/26 04:58:39;;;;;;;8.30;4.60;;;;;;;16.43;100.00;100816.72;4997729;28;20034;-74
2022/04/26 05:01:25;;;;;;;11.85;4.20;;;;;;;16.37;100.00;100816.91;4995710;28;20043;-75
2022/04/26 05:04:10;;;;;;;7.43;3.42;;;;;;;16.30;100.00;100820.69;4994532;28;20026;-74
2022/04/26 05:06:56;;;;;;;8.57;3.75;;;;;;;16.56;100.00;100821.41;4995978;28;20026;-73
2022/04/26 05:09:42;;;;;;;7.93;3.58;;;;;;;16.31;100.00;100825.09;4994126;28;20100;-73
2022/04/26 05:12:27;;;;;;;8.18;3.53;;;;;;;16.47;100.00;100826.25;4996055;28;20037;-73
2022/04/26 05:15:13;;;;;;;7.35;3.40;;;;;;;16.70;100.00;100824.38;4993993;28;20026;-74
2022/04/26 05:17:59;;;;;;;7.22;3.20;;;;;;;16.38;100.00;100827.41;4996055;28;20065;-73
2022/04/26 05:20:45;;;;;;;6.15;3.10;;;;;;;16.72;100.00;100832.25;4995567;28;20511;-74
2022/04/26 05:26:35;;;;;;;7.05;3.67;;;;;;;16.68;100.00;100843.91;4994269;28;20030;-73
2022/04/26 05:29:20;;;;;;;7.07;3.92;;;;;;;16.69;100.00;100851.78;4996240;28;20026;-74
2022/04/26 05:32:06;;;;;;;6.55;3.47;;;;;;;16.50;100.00;100849.91;4995269;28;20058;-73
2022/04/26 05:35:02;;;;;;;8.07;3.67;;;;;;;16.38;100.00;100840.63;4994229;28;20068;-74
2022/04/26 05:37:48;;;;;;;8.52;3.80;;;;;;;16.76;100.00;100855.88;4982080;28;20325;-74
2022/04/26 05:40:34;;;;;;;7.85;3.70;;;;;;;17.02;100.00;100860.09;4995601;28;20393;-74
2022/04/26 05:43:20;;;;;;;6.93;3.88;;;;;;;16.78;100.00;100861.09;4995598;28;20088;-74
2022/04/26 05:46:10;;;;;;;8.82;3.70;;;;;;;17.23;100.00;100867.16;4995511;28;20139;-73
2022/04/26 05:48:56;;;;;;;6.13;3.30;;;;;;;16.78;100.00;100866.41;4996359;28;20100;-74
2022/04/26 05:51:41;;;;;;;9.27;3.55;;;;;;;17.15;100.00;100871.91;4980494;28;20474;-74
2022/04/26 05:54:27;;;;;;;6.03;3.70;;;;;;;17.41;100.00;100863.75;4995158;28;20367;-75
2022/04/26 05:57:13;;;;;;;4.18;3.25;;;;;;;17.74;100.00;100872.88;4995201;28;20117;-74
2022/04/26 05:59:59;;;;;;;6.60;3.03;;;;;;;17.73;100.00;100863.22;4994270;28;20053;-74
2022/04/26 06:02:45;;;;;;;7.53;3.05;;;;;;;17.63;100.00;100865.41;4980174;28;20064;-73
2022/04/26 06:05:31;;;;;;;6.78;3.00;;;;;;;17.90;100.00;100864.19;4993714;28;20030;-73
2022/04/26 06:08:16;;;;;;;11.23;3.15;;;;;;;18.00;100.00;100868.13;4994674;28;20031;-75
2022/04/26 06:11:02;;;;;;;7.25;3.05;;;;;;;18.01;100.00;100871.66;4994025;28;20022;-75
2022/04/26 06:13:48;;;;;;;10.48;6.55;;;;;;;18.01;100.00;100877.81;4983309;28;20050;-73
2022/04/26 06:16:34;;;;;;;7.32;3.60;;;;;;;18.15;100.00;100874.53;4989998;28;20027;-73
2022/04/26 06:19:19;;;;;;;8.18;4.25;;;;;;;18.36;100.00;100876.22;4990838;28;21139;-72
2022/04/26 06:22:05;;;;;;;7.22;3.25;;;;;;;18.28;100.00;100867.72;4991857;28;20023;-73
2022/04/26 06:24:52;;;;;;;6.38;3.30;;;;;;;18.35;100.00;100874.50;4989681;28;20039;-74
2022/04/26 06:27:37;;;;;;;5.05;2.95;;;;;;;18.11;100.00;100870.28;4991304;28;20371;-73
2022/04/26 06:30:23;;;;;;;4.47;3.22;;;;;;;18.48;100.00;100875.63;4976707;28;20103;-74
2022/04/26 06:33:09;;;;;;;6.45;2.92;;;;;;;18.74;100.00;100875.28;4991132;28;20432;-73
2022/04/26 06:35:55;;;;;;;6.25;3.00;;;;;;;17.95;100.00;100888.69;4975648;28;20030;-73
2022/04/26 06:38:41;;;;;;;6.55;3.20;;;;;;;18.45;100.00;100883.78;4992632;28;20045;-73
2022/04/26 06:41:26;;;;;;;6.15;2.80;;;;;;;18.86;100.00;100890.59;4978169;28;20081;-74
2022/04/26 06:44:12;;;;;;;6.57;3.10;;;;;;;19.05;99.64;100883.47;4988012;28;20069;-74
2022/04/26 06:46:58;;;;;;;9.27;3.60;;;;;;;19.23;97.75;100882.53;4991379;28;20056;-73
2022/04/26 06:49:44;;;;;;;7.30;4.03;;;;;;;19.50;95.48;100885.63;4988133;28;20030;-73
2022/04/26 06:52:31;;;;;;;12.23;3.60;;;;;;;19.49;95.53;100886.56;4991007;28;20042;-73
2022/04/26 06:55:17;;;;;;;9.45;3.55;;;;;;;19.06;95.44;100886.03;4987056;28;20041;-74
2022/04/26 06:58:03;;;;;;;7.70;3.10;;;;;;;18.78;94.93;100883.00;4975737;28;20054;-73
2022/04/26 07:00:49;;;;;;;6.32;3.15;;;;;;;19.16;93.76;100886.44;4990708;28;20034;-73
2022/04/26 07:03:35;;;;;;;6.82;2.88;;;;;;;18.93;90.98;100884.91;4986645;28;20033;-73
2022/04/26 07:06:21;;;;;;;6.95;3.10;;;;;;;18.88;94.43;100891.38;4990864;28;20049;-73
2022/04/26 07:09:06;;;;;;;15.43;6.70;;;;;;;19.67;89.19;100894.47;4988340;28;20026;-74
2022/04/26 07:11:53;;;;;;;8.13;5.70;;;;;;;19.89;87.95;100902.19;4989146;28;20034;-73
2022/04/26 07:14:47;;;;;;;6.53;3.28;;;;;;;19.50;89.09;100901.56;4988125;28;20447;-71
2022/04/26 07:17:59;;;;;;;6.22;3.45;;;;;;;20.08;88.19;100902.91;4990202;28;20034;-73
2022/04/26 07:20:45;;;;;;;9.63;3.08;;;;;;;19.72;90.56;100913.69;4990049;28;20456;-73
2022/04/26 07:23:31;;;;;;;5.35;3.30;;;;;;;19.97;89.29;100913.28;4973031;28;20412;-72
2022/04/26 07:26:16;;;;;;;8.07;3.35;;;;;;;19.25;92.11;100909.91;4989866;28;20056;-72
2022/04/26 07:29:02;;;;;;;5.85;3.08;;;;;;;20.08;89.09;100906.44;4974944;28;20023;-71
2022/04/26 07:31:48;;;;;;;9.30;3.20;;;;;;;20.14;86.50;100913.25;4989592;28;20387;-72
2022/04/26 07:34:34;;;;;;;11.75;3.40;;;;;;;20.30;86.32;100908.84;4983649;28;20033;-72
2022/04/26 07:37:22;;;;;;;9.77;2.85;;;;;;;20.78;82.59;100914.13;4990714;28;20744;-73
2022/04/26 07:40:09;;;;;;;4.93;3.50;;;;;;;20.59;83.49;100908.97;4975923;28;20058;-74
2022/04/26 07:42:56;;;;;;;5.50;2.83;;;;;;;20.09;85.22;100918.81;4989490;28;20554;-73
2022/04/26 07:45:45;;;;;;;4.18;2.63;;;;;;;20.69;77.09;100917.31;4988277;28;20490;-73
2022/04/26 07:48:31;;;;;;;4.80;2.90;;;;;;;20.39;79.74;100924.31;4988820;28;20026;-73
2022/04/26 07:51:20;;;;;;;4.80;2.72;;;;;;;21.23;76.80;100920.41;4989155;28;20030;-72
2022/04/26 07:54:06;;;;;;;7.30;3.10;;;;;;;21.01;76.63;100924.38;4987724;28;20102;-74
2022/04/26 07:56:52;;;;;;;7.43;3.47;;;;;;;21.21;74.88;100922.28;4989359;28;20037;-73
2022/04/26 07:59:38;;;;;;;4.68;2.85;;;;;;;21.75;75.29;100924.41;4987992;28;20050;-74
2022/04/26 08:02:24;;;;;;;7.22;3.00;;;;;;;21.54;73.55;100920.28;4989399;28;20038;-73
2022/04/26 08:05:10;;;;;;;6.47;2.97;;;;;;;21.82;71.99;100930.22;4987582;28;20031;-73
2022/04/26 08:07:56;;;;;;;5.82;2.60;;;;;;;22.06;65.54;100928.75;4989008;28;20172;-73
2022/04/26 08:10:42;;;;;;;6.43;2.45;;;;;;;22.26;65.20;100921.19;4988412;28;20113;-73
2022/04/26 08:13:28;;;;;;;4.35;2.90;;;;;;;22.74;62.62;100931.50;4988634;28;20058;-72
2022/04/26 08:16:14;;;;;;;4.75;3.08;;;;;;;23.67;59.85;100939.59;4988965;28;20451;-73
2022/04/26 08:19:00;;;;;;;6.25;2.90;;;;;;;23.24;58.82;100934.44;4989893;28;20038;-72
2022/04/26 08:21:45;;;;;;;5.50;2.95;;;;;;;23.23;60.24;100932.72;4988898;28;20034;-73
2022/04/26 08:27:36;;;;;;;6.53;3.50;;;;;;;24.16;56.12;100933.47;4989242;28;20076;-73
2022/04/26 08:30:22;;;;;;;8.00;3.03;;;;;;;23.79;55.17;100934.25;4988744;28;21087;-73
2022/04/26 08:33:08;;;;;;;5.85;2.30;;;;;;;23.58;53.12;100929.53;4988062;28;20383;-72
2022/04/26 08:35:57;;;;;;;2.83;2.10;;;;;;;23.62;50.43;100929.19;4986775;28;20141;-73
2022/04/26 08:38:43;;;;;;;5.43;2.00;;;;;;;23.51;49.46;100939.78;4988412;28;20078;-72
2022/04/26 08:41:29;;;;;;;5.88;2.97;;;;;;;24.22;51.09;100938.38;4988716;28;20038;-73
2022/04/26 08:44:16;;;;;;;7.00;3.55;;;;;;;24.30;51.93;100930.66;4969170;28;20058;-72
2022/04/26 08:53:18;;;;;;;6.93;2.58;;;;;;;24.83;50.13;100929.56;4987945;28;20044;-74
2022/04/26 08:56:06;;;;;;;6.03;2.40;;;;;;;24.99;48.32;100928.28;4973764;28;20030;-76
2022/04/26 08:58:52;;;;;;;4.32;2.22;;;;;;;24.99;49.29;100924.78;4989298;28;20065;-79
2022/04/26 09:01:38;;;;;;;4.15;2.80;;;;;;;25.43;48.32;100925.03;4987614;28;20048;-73
2022/04/26 09:04:23;;;;;;;4.95;2.40;;;;;;;25.38;48.38;100927.19;4985962;28;20030;-73
2022/04/26 09:07:11;;;;;;;4.47;2.50;;;;;;;25.55;47.39;100927.63;4987666;28;20063;-73
2022/04/26 09:10:13;;;;;;;19.67;11.85;;;;;;;24.79;48.75;100918.16;4988491;28;20022;-72
2022/04/26 09:13:09;;;;;;;3.83;2.28;;;;;;;24.40;48.67;100929.06;4973796;28;20157;-72
2022/04/26 09:15:57;;;;;;;4.55;2.40;;;;;;;24.01;49.98;100918.47;4972145;28;20455;-72
2022/04/26 09:18:51;;;;;;;3.95;2.60;;;;;;;23.90;50.08;100918.31;4972534;28;20030;-74
2022/04/26 09:21:54;;;;;;;6.78;2.10;;;;;;;23.96;49.09;100915.25;4986174;28;20378;-73
2022/04/26 09:24:57;;;;;;;3.55;2.33;;;;;;;23.75;50.46;100916.69;4983746;28;20042;-74
2022/04/26 09:27:43;;;;;;;6.10;2.45;;;;;;;23.52;51.46;100911.19;4988184;28;20022;-73
2022/04/26 09:30:29;;;;;;;3.10;2.05;;;;;;;23.77;51.40;100911.22;4987966;28;20034;-74
2022/04/26 09:33:36;;;;;;;4.63;2.40;;;;;;;23.82;51.96;100909.97;4986715;28;20054;-73
2022/04/26 09:36:32;;;;;;;5.25;2.40;;;;;;;23.93;51.89;100903.91;4987882;28;20153;-73
2022/04/26 09:39:20;;;;;;;4.68;2.83;;;;;;;24.01;51.35;100907.75;4987356;28;20030;-73
2022/04/26 09:42:06;;;;;;;5.50;3.28;;;;;;;24.23;51.70;100904.44;4988091;28;20093;-73
2022/04/26 09:45:03;;;;;;;2.97;2.33;;;;;;;24.38;51.15;100912.22;4984925;28;20166;-74
2022/04/26 09:47:53;;;;;;;6.50;3.28;;;;;;;24.70;50.06;100902.78;4986656;28;20456;-73
2022/04/26 09:50:39;;;;;;;4.35;2.42;;;;;;;24.37;50.99;100904.31;4988349;28;20026;-74
2022/04/26 09:53:26;;;;;;;4.53;2.38;;;;;;;24.50;49.54;100903.31;4972689;28;20408;-73
2022/04/26 09:56:13;;;;;;;2.45;2.05;;;;;;;24.47;49.93;100906.22;4985777;28;20454;-73
2022/04/26 09:59:02;;;;;;;4.78;2.70;;;;;;;24.24;51.54;100909.69;4986546;28;20080;-72
2022/04/26 10:01:54;;;;;;;2.65;1.77;;;;;;;24.33;50.10;100905.47;4986777;28;20038;-74
2022/04/26 10:04:46;;;;;;;5.07;2.35;;;;;;;23.71;49.56;100895.63;4984204;28;20466;-72
2022/04/26 10:07:36;;;;;;;4.50;2.00;;;;;;;24.75;48.66;100892.56;4972918;28;20034;-72
2022/04/26 10:10:23;;;;;;;6.38;2.10;;;;;;;24.19;47.49;100895.75;4987129;28;20034;-71
2022/04/26 10:16:21;;;;;;;4.80;1.80;;;;;;;23.82;48.82;100885.88;4986265;28;20084;-72
2022/04/26 10:19:09;;;;;;;2.78;2.00;;;;;;;24.13;48.12;100882.81;4986761;28;20030;-73
2022/04/26 10:21:58;;;;;;;3.88;1.83;;;;;;;24.73;47.37;100873.06;4986610;28;20193;-73
2022/04/26 10:25:21;;;;;;;3.35;1.80;;;;;;;24.51;47.37;100886.28;4982943;28;20374;-73
2022/04/26 10:28:26;;;;;;;3.10;1.40;;;;;;;24.43;43.61;100879.78;4945996;29;20031;-74
2022/04/26 10:31:12;;;;;;;1.48;1.38;;;;;;;24.79;42.02;100877.13;4985757;28;20045;-74
2022/04/26 10:33:58;;;;;;;2.13;1.63;;;;;;;24.62;41.96;100877.47;4983782;28;20444;-72
2022/04/26 10:36:45;;;;;;;3.80;2.45;;;;;;;25.02;42.13;100878.94;4970580;28;20054;-73
2022/04/26 10:39:37;;;;;;;2.65;1.30;;;;;;;25.17;41.68;100877.81;4983465;28;20121;-73
2022/04/26 10:42:35;;;;;;;2.13;1.30;;;;;;;25.18;41.60;100879.50;4986720;28;20042;-72
2022/04/26 10:45:23;;;;;;;2.38;1.30;;;;;;;25.14;41.12;100867.31;4969940;28;20755;-73
2022/04/26 10:48:25;;;;;;;4.22;1.63;;;;;;;24.86;41.56;100873.00;4987081;28;20030;-74
2022/04/26 10:51:36;;;;;;;2.10;1.25;;;;;;;24.97;39.50;100879.31;4971319;28;20050;-73
2022/04/26 10:54:58;;;;;;;1.65;1.20;;;;;;;24.18;41.93;100874.47;4984840;28;20352;-72
2022/04/26 10:57:46;;;;;;;2.65;1.30;;;;;;;25.67;40.34;100882.88;4986604;28;20466;-74
2022/04/26 11:00:34;;;;;;;3.70;1.30;;;;;;;25.43;39.77;100876.75;4990036;28;20459;-73
2022/04/26 11:03:21;;;;;;;1.15;1.05;;;;;;;24.52;40.28;100876.41;4993604;28;20034;-72
2022/04/26 11:06:07;;;;;;;2.50;1.40;;;;;;;24.73;40.89;100877.56;4990657;28;20030;-73
2022/04/26 11:09:09;;;;;;;4.47;1.67;;;;;;;24.58;41.61;100875.97;4991031;28;20026;-74
2022/04/26 11:11:58;;;;;;;3.28;1.60;;;;;;;24.96;41.18;100869.56;4991294;28;20034;-73
2022/04/26 11:14:48;;;;;;;1.92;1.70;;;;;;;25.28;41.01;100873.38;4986230;28;20030;-74
2022/04/26 11:17:35;;;;;;;3.03;2.33;;;;;;;25.57;40.20;100873.84;4990955;28;20037;-73
2022/04/26 11:20:24;;;;;;;2.97;2.40;;;;;;;25.68;40.93;100880.09;4987868;28;20042;-73
2022/04/26 11:29:22;;;;;;;1.77;1.10;;;;;;;26.16;38.96;100870.91;4989129;28;20057;-73
2022/04/26 11:32:09;;;;;;;1.60;1.10;;;;;;;26.66;37.93;100877.63;4992306;28;20487;-74
2022/04/26 11:34:58;;;;;;;1.80;1.10;;;;;;;26.67;38.60;100876.66;4987841;28;20117;-73
2022/04/26 11:37:47;;;;;;;1.92;1.10;;;;;;;26.21;38.10;100879.50;4989411;28;20470;-73
2022/04/26 11:40:38;;;;;;;2.38;1.08;;;;;;;25.37;38.07;100880.75;4987695;28;20042;-74
2022/04/26 11:43:31;;;;;;;2.17;1.00;;;;;;;25.97;38.30;100868.00;5001075;28;20069;-73
2022/04/26 11:46:16;;;;;;;1.35;1.00;;;;;;;26.58;36.88;100875.59;4987301;28;20041;-73
2022/04/26 11:49:04;;;;;;;6.18;4.85;;;;;;;26.14;38.05;100874.69;4989446;28;20177;-74
2022/04/26 11:51:59;;;;;;;12.13;10.93;;;;;;;26.31;37.36;100868.84;4989163;28;20116;-74
2022/04/26 11:54:45;;;;;;;2.28;1.40;;;;;;;25.97;38.29;100865.31;4986370;28;20081;-74
2022/04/26 11:57:32;;;;;;;2.65;1.40;;;;;;;25.64;39.23;100867.03;4987440;28;20034;-72
2022/04/26 12:00:20;;;;;;;3.65;1.60;;;;;;;26.28;38.00;100861.88;4989256;28;20038;-73
2022/04/26 12:03:06;;;;;;;3.45;1.33;;;;;;;25.99;38.47;100857.97;4988874;28;20398;-74
2022/04/26 12:05:58;;;;;;;3.17;1.20;;;;;;;26.07;38.16;100850.16;4972710;28;20049;-73
2022/04/26 12:08:50;;;;;;;2.95;0.90;;;;;;;25.92;37.74;100847.81;4988724;28;20101;-73
2022/04/26 12:11:38;;;;;;;2.45;1.38;;;;;;;26.14;38.18;100856.75;4989631;28;20019;-73
2022/04/26 12:14:24;;;;;;;2.67;1.70;;;;;;;26.73;37.24;100849.28;4985184;28;20541;-73
2022/04/26 12:17:26;;;;;;;2.50;1.45;;;;;;;26.88;36.82;100848.84;4989664;28;20101;-74
2022/04/26 12:20:18;;;;;;;2.10;1.45;;;;;;;26.45;37.06;100845.25;4988205;28;20032;-72
2022/04/26 12:23:05;;;;;;;2.40;1.10;;;;;;;26.66;37.54;100848.94;4988728;28;20022;-73
2022/04/26 12:26:02;;;;;;;3.72;1.50;;;;;;;26.36;38.51;100829.88;4971960;28;20153;-72
2022/04/26 12:28:50;;;;;;;44.28;32.67;;;;;;;25.91;38.79;100841.56;4987944;28;20413;-73
2022/04/26 12:31:43;;;;;;;3.58;2.35;;;;;;;26.69;37.42;100837.91;4988627;28;20444;-73
2022/04/26 12:34:38;;;;;;;5.93;2.47;;;;;;;27.00;37.53;100833.53;4985847;28;20041;-73
2022/04/26 12:37:34;;;;;;;1.20;1.10;;;;;;;26.22;37.62;100826.59;4972811;28;20026;-75
2022/04/26 12:40:20;;;;;;;2.65;1.33;;;;;;;26.60;36.51;100832.44;4974210;28;20867;-75
2022/04/26 12:43:27;;;;;;;2.20;1.38;;;;;;;26.17;36.63;100823.44;4988166;28;20045;-75
2022/04/26 12:46:12;;;;;;;2.45;0.98;;;;;;;26.87;35.82;100820.25;4972970;28;20034;-75
2022/04/26 12:52:12;;;;;;;3.15;0.90;;;;;;;25.96;35.73;100815.25;4987358;28;20034;-74
2022/04/26 12:54:58;;;;;;;6.78;1.70;;;;;;;26.75;35.53;100818.59;4985075;28;20057;-75
2022/04/26 12:57:57;;;;;;;1.45;1.00;;;;;;;26.66;33.89;100807.75;4973983;28;20506;-75
2022/04/26 13:00:50;;;;;;;3.63;1.15;;;;;;;26.69;34.07;100807.50;4985429;28;20050;-75
2022/04/26 13:03:37;;;;;;;1.55;1.00;;;;;;;26.77;34.93;100813.94;4986318;28;20352;-74
2022/04/26 13:06:25;;;;;;;3.35;1.30;;;;;;;26.64;35.90;100815.09;4987570;28;20422;-76
2022/04/26 13:09:11;;;;;;;3.03;1.70;;;;;;;26.88;36.45;100816.59;4974573;28;20091;-75
2022/04/26 13:11:58;;;;;;;1.27;1.00;;;;;;;26.76;36.66;100816.78;4988755;28;20125;-74
2022/04/26 13:14:44;;;;;;;4.30;2.95;;;;;;;26.84;36.48;100806.22;4985246;28;20470;-75
2022/04/26 13:17:29;;;;;;;2.55;1.50;;;;;;;26.64;36.80;100809.72;4988822;28;20085;-75
2022/04/26 13:20:16;;;;;;;5.05;1.52;;;;;;;26.46;37.35;100805.81;4984768;28;20041;-75
2022/04/26 13:23:02;;;;;;;5.80;1.70;;;;;;;25.88;37.26;100803.38;4988543;28;20128;-73
2022/04/26 13:25:48;;;;;;;1.15;1.00;;;;;;;26.42;37.04;100801.66;4970888;28;20038;-74
2022/04/26 13:28:34;;;;;;;2.20;1.30;;;;;;;25.64;38.25;100794.56;4973017;28;20026;-74
2022/04/26 13:31:20;;;;;;;3.25;1.40;;;;;;;26.42;37.70;100796.28;4987437;28;20386;-75
2022/04/26 13:34:07;;;;;;;2.97;1.13;;;;;;;26.18;37.32;100780.34;4985904;28;20069;-76
2022/04/26 13:36:54;;;;;;;4.28;1.67;;;;;;;26.33;37.15;100786.28;4972835;28;20045;-74
2022/04/26 13:39:41;;;;;;;4.22;2.95;;;;;;;26.71;37.61;100775.94;4973273;28;20463;-74
2022/04/26 13:42:30;;;;;;;3.25;1.40;;;;;;;26.24;38.10;100789.72;4986465;28;20070;-74
2022/04/26 13:45:20;;;;;;;2.45;1.40;;;;;;;26.20;38.38;100783.72;4983880;28;20403;-74
2022/04/26 13:48:13;;;;;;;4.35;1.20;;;;;;;26.00;38.80;100776.44;4987555;28;20038;-73
2022/04/26 13:50:59;;;;;;;2.55;1.15;;;;;;;25.82;39.15;100782.38;4972811;28;20054;-74
2022/04/26 13:53:51;;;;;;;4.15;1.40;;;;;;;25.94;38.50;100773.38;4983752;28;20092;-74
2022/04/26 13:56:37;;;;;;;2.22;1.20;;;;;;;25.83;37.71;100776.03;4971948;28;20030;-73
2022/04/26 13:59:24;;;;;;;3.92;1.40;;;;;;;25.30;39.65;100780.25;4986320;28;20458;-74
2022/04/26 14:02:11;;;;;;;7.57;1.70;;;;;;;25.66;39.46;100776.50;4971801;28;20046;-75
2022/04/26 14:04:56;;;;;;;3.92;1.42;;;;;;;26.14;39.75;100767.25;4981230;28;20110;-74
2022/04/26 14:07:44;;;;;;;3.10;1.42;;;;;;;26.77;38.36;100770.06;4986707;28;20022;-74
2022/04/26 14:10:31;;;;;;;4.93;1.58;;;;;;;26.52;38.99;100771.22;4988084;28;20139;-73
2022/04/26 14:13:16;;;;;;;5.00;3.08;;;;;;;26.19;38.89;100773.09;4985600;28;20022;-74
2022/04/26 14:22:11;;;;;;;2.10;1.10;;;;;;;26.28;39.09;100775.91;4985561;28;20022;-77
2022/04/26 14:25:03;;;;;;;4.60;1.52;;;;;;;25.88;39.49;100773.84;4982517;28;20034;-76
2022/04/26 14:27:49;;;;;;;1.73;1.38;;;;;;;26.36;39.22;100772.63;4986796;28;20034;-74
2022/04/26 14:30:35;;;;;;;4.03;1.58;;;;;;;26.23;39.09;100774.56;4972940;28;20027;-76
2022/04/26 14:33:21;;;;;;;3.38;1.40;;;;;;;26.52;38.65;100765.84;4985774;28;20098;-79
2022/04/26 14:36:15;;;;;;;2.30;1.13;;;;;;;26.14;38.92;100764.56;4989966;28;20459;-76
2022/04/26 14:39:01;;;;;;;1.98;1.08;;;;;;;26.15;39.38;100766.28;4990587;28;20042;-75
2022/04/26 14:41:47;;;;;;;1.80;1.40;;;;;;;26.42;39.48;100764.03;4991224;28;20034;-73
2022/04/26 14:44:33;;;;;;;2.08;1.33;;;;;;;26.29;39.90;100766.84;4986279;28;20034;-73
2022/04/26 14:47:18;;;;;;;2.58;1.52;;;;;;;26.36;39.65;100768.06;4990448;28;20036;-74
2022/04/26 14:50:05;;;;;;;1.85;1.45;;;;;;;26.03;39.74;100762.75;4991741;28;21278;-74
2022/04/26 14:52:53;;;;;;;3.05;1.33;;;;;;;25.77;40.39;100768.47;4991125;28;20375;-76
2022/04/26 14:55:38;;;;;;;2.70;1.60;;;;;;;25.71;40.63;100763.56;4971985;28;20026;-74
2022/04/26 14:58:34;;;;;;;3.13;1.30;;;;;;;25.63;40.49;100758.00;4979531;28;20121;-80
2022/04/26 15:01:20;;;;;;;2.38;1.20;;;;;;;25.58;40.85;100760.16;4996850;28;20475;-76
2022/04/26 15:04:05;;;;;;;2.75;1.58;;;;;;;25.45;41.22;100756.72;4981692;28;20113;-76
2022/04/26 15:06:51;;;;;;;2.15;1.45;;;;;;;25.42;41.40;100759.66;4996766;28;20030;-77
2022/04/26 15:09:43;;;;;;;1.70;1.27;;;;;;;25.41;41.71;100766.84;4996740;28;20072;-76
2022/04/26 15:18:39;;;;;;;1.98;1.48;;;;;;;25.37;41.79;100756.47;4995760;28;20105;-77
2022/04/26 15:21:27;;;;;;;9.00;1.58;;;;;;;25.46;42.14;100755.75;4996978;28;20104;-77
2022/04/26 15:24:14;;;;;;;2.17;1.40;;;;;;;25.18;42.39;100762.38;4996091;28;20026;-77
2022/04/26 15:26:59;;;;;;;2.90;1.52;;;;;;;25.04;42.61;100761.72;4981225;28;20033;-76
2022/04/26 15:29:45;;;;;;;2.85;1.38;;;;;;;25.39;41.81;100763.41;4996727;28;20042;-77
2022/04/26 15:32:31;;;;;;;1.88;1.38;;;;;;;25.31;41.88;100762.34;4996352;28;20439;-77
2022/04/26 15:35:17;;;;;;;7.57;2.50;;;;;;;25.45;42.10;100759.41;4982186;28;20026;-78
2022/04/26 15:38:03;;;;;;;3.63;1.90;;;;;;;25.34;42.52;100754.88;4994892;28;20105;-78
2022/04/26 15:40:50;;;;;;;2.03;1.60;;;;;;;25.43;41.76;100756.00;4995004;28;20031;-80
2022/04/26 15:43:37;;;;;;;3.50;1.30;;;;;;;25.54;40.87;100753.31;4996376;28;20038;-79
2022/04/26 15:46:23;;;;;;;2.75;1.30;;;;;;;25.39;41.17;100762.59;4994705;28;20023;-78
2022/04/26 15:49:10;;;;;;;2.65;1.50;;;;;;;25.30;41.18;100760.59;4982722;28;20458;-77
2022/04/26 15:51:57;;;;;;;3.05;1.63;;;;;;;24.78;41.81;100757.47;4996479;28;20026;-77
2022/04/26 15:54:43;;;;;;;3.88;1.55;;;;;;;25.27;41.80;100763.50;4994594;28;20038;-77
2022/04/26 15:57:29;;;;;;;2.55;1.52;;;;;;;25.16;41.19;100761.63;4994927;28;20406;-78
2022/04/26 16:00:16;;;;;;;3.40;1.70;;;;;;;25.24;40.95;100766.41;4996626;28;20399;-77
2022/04/26 16:03:05;;;;;;;4.80;1.50;;;;;;;25.05;40.96;100763.44;4994615;28;20026;-77
2022/04/26 16:05:51;;;;;;;4.30;1.70;;;;;;;25.31;41.03;100763.16;4997733;28;20061;-77
2022/04/26 16:08:38;;;;;;;2.05;1.40;;;;;;;25.16;41.02;100774.19;4997053;28;20026;-77
2022/04/26 16:20:37;;;;;;;10.40;6.15;;;;;;;25.00;42.04;100777.19;4994980;28;20018;-77
2022/04/26 16:23:23;;;;;;;4.93;2.70;;;;;;;25.04;42.12;100783.19;4983189;28;20042;-77
2022/04/26 16:26:11;;;;;;;2.50;1.80;;;;;;;24.95;42.31;100784.72;4981983;28;20378;-77
2022/04/26 16:28:56;;;;;;;4.90;2.00;;;;;;;24.90;42.76;100780.66;4982674;28;20041;-77
2022/04/26 16:31:42;;;;;;;3.58;2.72;;;;;;;24.70;42.92;100775.94;4995381;28;20047;-76
2022/04/26 16:34:29;;;;;;;4.13;1.90;;;;;;;24.72;42.78;100782.06;4996973;28;20398;-77
2022/04/26 16:37:16;;;;;;;9.32;2.38;;;;;;;24.64;43.45;100787.13;4996084;28;20419;-78
2022/04/26 16:40:03;;;;;;;8.73;2.38;;;;;;;24.56;43.96;100787.69;4996957;28;20053;-77
2022/04/26 16:42:50;;;;;;;8.05;3.10;;;;;;;24.43;44.47;100789.53;4996894;28;20105;-77
2022/04/26 16:45:35;;;;;;;14.45;4.40;;;;;;;24.27;45.13;100788.09;4994928;28;20097;-80
2022/04/26 16:48:22;;;;;;;11.02;4.53;;;;;;;24.15;45.54;100784.47;4996275;28;20030;-79
2022/04/26 16:51:08;;;;;;;11.23;3.67;;;;;;;23.97;46.05;100792.97;4983015;28;20057;-82
2022/04/26 16:53:56;;;;;;;8.30;3.92;;;;;;;24.34;45.97;100800.09;4994786;28;20023;-77
2022/04/26 16:56:42;;;;;;;10.48;3.75;;;;;;;24.34;45.93;100800.09;4994063;28;20455;-78
2022/04/26 16:59:29;;;;;;;6.30;2.95;;;;;;;24.38;45.67;100798.88;4996309;28;20030;-76
2022/04/26 17:02:15;;;;;;;7.18;3.30;;;;;;;24.32;46.16;100802.88;4981287;28;20026;-76
2022/04/26 17:05:01;;;;;;;4.80;2.60;;;;;;;24.36;46.38;100798.13;4982307;28;20033;-77
2022/04/26 17:07:46;;;;;;;6.53;3.28;;;;;;;24.14;46.72;100798.84;4996316;28;20394;-76
2022/04/26 17:10:32;;;;;;;5.43;3.20;;;;;;;24.16;47.00;100812.13;4996277;28;20109;-77
2022/04/26 17:13:18;;;;;;;6.85;3.33;;;;;;;24.08;46.70;100809.13;4994460;28;20030;-78
2022/04/26 17:16:04;;;;;;;6.20;3.10;;;;;;;24.11;nan;100804.41;4981769;28;20026;-77
2022/04/26 17:18:51;;;;;;;6.43;3.42;;;;;;;23.97;47.48;100814.38;4995212;28;20034;-77
2022/04/26 17:21:37;;;;;;;5.55;3.15;;;;;;;23.95;47.65;100808.31;4980715;28;20416;-77